sensor_id;sensor_type;location;lat;lon;timestamp;pressure;altitude;pressure_sealevel;temperature;humidity
48872;BME280;36154;51.674;7.824;2023-02-22T00:00:39;100758.09;;;20.07;60.38
48872;BME280;36154;51.674;7.824;2023-02-22T00:05:35;100754.69;;;20.05;60.37
48872;BME280;36154;51.674;7.824;2023-02-22T00:08:04;100752.09;;;20.05;60.22
48872;BME280;36154;51.674;7.824;2023-02-22T00:10:29;100745.19;;;20.06;60.27
48872;BME280;36154;51.674;7.824;2023-02-22T00:12:54;100744.34;;;20.05;60.28
48872;BME280;36154;51.674;7.824;2023-02-22T00:15:22;100740.00;;;20.06;60.14
48872;BME280;36154;51.674;7.824;2023-02-22T00:17:52;100740.91;;;20.05;59.79
48872;BME280;36154;51.674;7.824;2023-02-22T00:20:17;100738.41;;;20.02;60.01
48872;BME280;36154;51.674;7.824;2023-02-22T00:22:44;100734.03;;;20.04;59.97
48872;BME280;36154;51.674;7.824;2023-02-22T00:25:21;100745.22;;;20.04;60.10
48872;BME280;36154;51.674;7.824;2023-02-22T00:27:47;100745.25;;;20.03;59.99
48872;BME280;36154;51.674;7.824;2023-02-22T00:30:19;100742.66;;;20.03;59.79
48872;BME280;36154;51.674;7.824;2023-02-22T00:32:45;100740.09;;;20.03;60.01
48872;BME280;36154;51.674;7.824;2023-02-22T00:35:15;100738.41;;;20.02;59.95
48872;BME280;36154;51.674;7.824;2023-02-22T00:37:41;100725.50;;;20.00;59.75
48872;BME280;36154;51.674;7.824;2023-02-22T00:40:11;100734.97;;;20.00;59.66
48872;BME280;36154;51.674;7.824;2023-02-22T00:42:37;100731.53;;;20.01;59.43
48872;BME280;36154;51.674;7.824;2023-02-22T00:45:03;100730.72;;;19.99;59.39
48872;BME280;36154;51.674;7.824;2023-02-22T00:47:29;100729.81;;;20.00;59.47
48872;BME280;36154;51.674;7.824;2023-02-22T00:49:55;100728.97;;;19.99;59.25
48872;BME280;36154;51.674;7.824;2023-02-22T00:52:20;100723.78;;;19.99;59.56
48872;BME280;36154;51.674;7.824;2023-02-22T00:54:48;100721.25;;;19.98;59.62
48872;BME280;36154;51.674;7.824;2023-02-22T00:57:13;100716.06;;;19.98;59.17
48872;BME280;36154;51.674;7.824;2023-02-22T00:59:38;100710.06;;;19.97;59.13
48872;BME280;36154;51.674;7.824;2023-02-22T01:02:04;100705.72;;;19.98;59.12
48872;BME280;36154;51.674;7.824;2023-02-22T01:04:29;100704.06;;;19.97;59.15
48872;BME280;36154;51.674;7.824;2023-02-22T01:06:54;100707.50;;;19.96;59.25
48872;BME280;36154;51.674;7.824;2023-02-22T01:09:23;100706.69;;;19.95;59.19
48872;BME280;36154;51.674;7.824;2023-02-22T01:11:52;100695.47;;;19.94;59.13
48872;BME280;36154;51.674;7.824;2023-02-22T01:14:20;100703.22;;;19.94;59.20
48872;BME280;36154;51.674;7.824;2023-02-22T01:16:45;100701.53;;;19.93;59.04
48872;BME280;36154;51.674;7.824;2023-02-22T01:19:10;100701.50;;;19.95;59.03
48872;BME280;36154;51.674;7.824;2023-02-22T01:21:36;100699.78;;;19.94;59.13
48872;BME280;36154;51.674;7.824;2023-02-22T01:24:03;100693.78;;;19.93;59.03
48872;BME280;36154;51.674;7.824;2023-02-22T01:26:28;100691.22;;;19.92;59.26
48872;BME280;36154;51.674;7.824;2023-02-22T01:28:54;100686.06;;;19.92;59.09
48872;BME280;36154;51.674;7.824;2023-02-22T01:31:19;100689.50;;;19.92;59.23
48872;BME280;36154;51.674;7.824;2023-02-22T01:33:44;100680.88;;;19.92;59.04
48872;BME280;36154;51.674;7.824;2023-02-22T01:36:10;100676.56;;;19.92;59.06
48872;BME280;36154;51.674;7.824;2023-02-22T01:38:37;100685.22;;;19.91;58.89
48872;BME280;36154;51.674;7.824;2023-02-22T01:41:04;100676.63;;;19.89;59.01
48872;BME280;36154;51.674;7.824;2023-02-22T01:43:31;100674.91;;;19.90;59.00
48872;BME280;36154;51.674;7.824;2023-02-22T01:46:05;100674.88;;;19.91;58.83
48872;BME280;36154;51.674;7.824;2023-02-22T01:48:45;100673.16;;;19.90;58.92
48872;BME280;36154;51.674;7.824;2023-02-22T01:51:15;100673.22;;;19.89;58.87
48872;BME280;36154;51.674;7.824;2023-02-22T01:53:51;100671.47;;;19.89;58.83
48872;BME280;36154;51.674;7.824;2023-02-22T01:56:18;100664.59;;;19.88;59.01
48872;BME280;36154;51.674;7.824;2023-02-22T01:58:48;100664.59;;;19.88;58.85
48872;BME280;36154;51.674;7.824;2023-02-22T02:01:15;100669.78;;;19.88;58.81
48872;BME280;36154;51.674;7.824;2023-02-22T02:03:43;100662.91;;;19.87;58.69
48872;BME280;36154;51.674;7.824;2023-02-22T02:06:12;100657.72;;;19.87;58.84
48872;BME280;36154;51.674;7.824;2023-02-22T02:11:22;100656.03;;;19.86;59.15
48872;BME280;36154;51.674;7.824;2023-02-22T02:13:50;100644.06;;;19.82;58.62
48872;BME280;36154;51.674;7.824;2023-02-22T02:16:16;100650.84;;;19.86;58.69
48872;BME280;36154;51.674;7.824;2023-02-22T02:18:42;100650.84;;;19.86;58.92
48872;BME280;36154;51.674;7.824;2023-02-22T02:27:25;100639.69;;;19.84;58.90
48872;BME280;36154;51.674;7.824;2023-02-22T02:33:05;100632.84;;;19.83;58.85
48872;BME280;36154;51.674;7.824;2023-02-22T02:35:46;100628.56;;;19.82;58.85
48872;BME280;36154;51.674;7.824;2023-02-22T02:40:51;100624.22;;;19.83;58.84
48872;BME280;36154;51.674;7.824;2023-02-22T02:43:33;100621.69;;;19.81;58.71
48872;BME280;36154;51.674;7.824;2023-02-22T02:46:05;100618.22;;;19.82;58.58
48872;BME280;36154;51.674;7.824;2023-02-22T02:48:34;100623.38;;;19.82;58.92
48872;BME280;36154;51.674;7.824;2023-02-22T02:51:05;100619.06;;;19.83;58.94
48872;BME280;36154;51.674;7.824;2023-02-22T02:53:35;100616.50;;;19.81;58.83
48872;BME280;36154;51.674;7.824;2023-02-22T02:56:02;100623.38;;;19.82;58.96
48872;BME280;36154;51.674;7.824;2023-02-22T02:58:27;100620.81;;;19.82;58.61
48872;BME280;36154;51.674;7.824;2023-02-22T03:00:57;100613.94;;;19.81;58.72
48872;BME280;36154;51.674;7.824;2023-02-22T03:03:31;100620.81;;;19.82;58.76
48872;BME280;36154;51.674;7.824;2023-02-22T03:09:09;100615.66;;;19.81;58.91
48872;BME280;36154;51.674;7.824;2023-02-22T03:11:59;100599.31;;;19.80;58.87
48872;BME280;36154;51.674;7.824;2023-02-22T03:17:35;100606.22;;;19.80;58.92
48872;BME280;36154;51.674;7.824;2023-02-22T03:20:11;100596.81;;;19.77;58.75
48872;BME280;36154;51.674;7.824;2023-02-22T03:22:43;100594.22;;;19.77;58.78
48872;BME280;36154;51.674;7.824;2023-02-22T03:25:25;100597.69;;;19.76;58.90
48872;BME280;36154;51.674;7.824;2023-02-22T03:28:00;100596.00;;;19.75;58.95
48872;BME280;36154;51.674;7.824;2023-02-22T03:30:35;100587.34;;;19.76;58.94
48872;BME280;36154;51.674;7.824;2023-02-22T03:33:09;100593.44;;;19.75;58.99
48872;BME280;36154;51.674;7.824;2023-02-22T03:35:40;100585.63;;;19.77;59.04
48872;BME280;36154;51.674;7.824;2023-02-22T03:38:10;100589.13;;;19.74;58.84
48872;BME280;36154;51.674;7.824;2023-02-22T03:40:42;100582.19;;;19.76;58.83
48872;BME280;36154;51.674;7.824;2023-02-22T03:43:14;100582.19;;;19.76;59.02
48872;BME280;36154;51.674;7.824;2023-02-22T03:45:44;100583.88;;;19.77;58.87
48872;BME280;36154;51.674;7.824;2023-02-22T03:48:18;100577.03;;;19.74;58.87
48872;BME280;36154;51.674;7.824;2023-02-22T03:50:44;100579.56;;;19.78;58.80
48872;BME280;36154;51.674;7.824;2023-02-22T03:53:10;100581.31;;;19.77;58.76
48872;BME280;36154;51.674;7.824;2023-02-22T03:55:35;100573.53;;;19.77;58.84
48872;BME280;36154;51.674;7.824;2023-02-22T03:58:07;100579.56;;;19.78;58.72
48872;BME280;36154;51.674;7.824;2023-02-22T04:00:34;100575.31;;;19.75;58.81
48872;BME280;36154;51.674;7.824;2023-02-22T04:03:00;100570.97;;;19.77;58.71
48872;BME280;36154;51.674;7.824;2023-02-22T04:05:25;100568.38;;;19.77;58.71
48872;BME280;36154;51.674;7.824;2023-02-22T04:07:56;100558.88;;;19.78;58.80
48872;BME280;36154;51.674;7.824;2023-02-22T04:10:22;100557.97;;;19.80;58.78
48872;BME280;36154;51.674;7.824;2023-02-22T04:12:48;100559.63;;;19.81;58.64
48872;BME280;36154;51.674;7.824;2023-02-22T04:15:19;100553.50;;;19.85;58.72
48872;BME280;36154;51.674;7.824;2023-02-22T04:17:45;100562.03;;;19.89;58.67
48872;BME280;36154;51.674;7.824;2023-02-22T04:20:11;100553.34;;;19.91;58.47
48872;BME280;36154;51.674;7.824;2023-02-22T04:22:38;100557.53;;;19.96;58.39
48872;BME280;36154;51.674;7.824;2023-02-22T04:25:04;100566.97;;;19.98;58.46
48872;BME280;36154;51.674;7.824;2023-02-22T04:27:29;100556.50;;;20.01;58.25
48872;BME280;36154;51.674;7.824;2023-02-22T04:29:54;100552.16;;;20.03;58.25
48872;BME280;36154;51.674;7.824;2023-02-22T04:32:20;100552.13;;;20.05;58.35
48872;BME280;36154;51.674;7.824;2023-02-22T04:34:45;100550.28;;;20.08;58.12
48872;BME280;36154;51.674;7.824;2023-02-22T04:37:10;100551.09;;;20.10;58.15
48872;BME280;36154;51.674;7.824;2023-02-22T04:39:36;100553.63;;;20.12;58.13
48872;BME280;36154;51.674;7.824;2023-02-22T04:42:01;100552.69;;;20.15;57.95
48872;BME280;36154;51.674;7.824;2023-02-22T04:44:27;100548.34;;;20.17;58.00
48872;BME280;36154;51.674;7.824;2023-02-22T04:46:52;100550.84;;;20.18;58.06
48872;BME280;36154;51.674;7.824;2023-02-22T04:49:17;100552.56;;;20.19;57.96
48872;BME280;36154;51.674;7.824;2023-02-22T04:51:43;100552.47;;;20.22;57.90
48872;BME280;36154;51.674;7.824;2023-02-22T04:54:08;100552.44;;;20.24;57.77
48872;BME280;36154;51.674;7.824;2023-02-22T04:56:33;100551.53;;;20.25;58.10
48872;BME280;36154;51.674;7.824;2023-02-22T04:58:58;100541.13;;;20.26;57.77
48872;BME280;36154;51.674;7.824;2023-02-22T05:01:24;100548.00;;;20.27;57.75
48872;BME280;36154;51.674;7.824;2023-02-22T05:03:50;100541.97;;;20.28;57.58
48872;BME280;36154;51.674;7.824;2023-02-22T05:06:16;100547.09;;;20.30;57.36
48872;BME280;36154;51.674;7.824;2023-02-22T05:08:42;100532.41;;;20.30;57.29
48872;BME280;36154;51.674;7.824;2023-02-22T05:11:07;100527.22;;;20.30;57.19
48872;BME280;36154;51.674;7.824;2023-02-22T05:13:34;100534.09;;;20.31;57.24
48872;BME280;36154;51.674;7.824;2023-02-22T05:15:59;100531.50;;;20.31;57.09
48872;BME280;36154;51.674;7.824;2023-02-22T05:18:24;100534.09;;;20.31;56.87
48872;BME280;36154;51.674;7.824;2023-02-22T05:20:50;100529.78;;;20.32;56.86
48872;BME280;36154;51.674;7.824;2023-02-22T05:23:15;100527.22;;;20.30;56.87
48872;BME280;36154;51.674;7.824;2023-02-22T05:25:43;100522.91;;;20.31;56.75
48872;BME280;36154;51.674;7.824;2023-02-22T05:28:13;100516.03;;;20.30;57.13
48872;BME280;36154;51.674;7.824;2023-02-22T05:30:38;100521.25;;;20.28;57.36
48872;BME280;36154;51.674;7.824;2023-02-22T05:33:04;100516.09;;;20.28;57.42
48872;BME280;36154;51.674;7.824;2023-02-22T05:35:30;100512.69;;;20.26;57.60
48872;BME280;36154;51.674;7.824;2023-02-22T05:37:55;100517.84;;;20.26;57.91
48872;BME280;36154;51.674;7.824;2023-02-22T05:40:23;100513.59;;;20.25;57.97
48872;BME280;36154;51.674;7.824;2023-02-22T05:42:49;100518.75;;;20.25;58.00
48872;BME280;36154;51.674;7.824;2023-02-22T05:45:16;100511.88;;;20.24;58.06
48872;BME280;36154;51.674;7.824;2023-02-22T05:47:42;100505.03;;;20.23;58.25
48872;BME280;36154;51.674;7.824;2023-02-22T05:50:08;100505.03;;;20.23;58.00
48872;BME280;36154;51.674;7.824;2023-02-22T05:52:34;100504.22;;;20.21;58.32
48872;BME280;36154;51.674;7.824;2023-02-22T05:54:59;100507.72;;;20.20;58.21
48872;BME280;36154;51.674;7.824;2023-02-22T05:57:24;100497.34;;;20.20;58.16
48872;BME280;36154;51.674;7.824;2023-02-22T05:59:50;100498.22;;;20.19;58.00
48872;BME280;36154;51.674;7.824;2023-02-22T06:02:15;100508.59;;;20.19;58.01
48872;BME280;36154;51.674;7.824;2023-02-22T06:04:44;100504.38;;;20.17;58.01
48872;BME280;36154;51.674;7.824;2023-02-22T06:07:10;100498.41;;;20.13;58.25
48872;BME280;36154;51.674;7.824;2023-02-22T06:09:36;100508.66;;;20.16;58.16
48872;BME280;36154;51.674;7.824;2023-02-22T06:12:01;100512.16;;;20.15;58.07
48872;BME280;36154;51.674;7.824;2023-02-22T06:14:28;100510.47;;;20.14;57.88
48872;BME280;36154;51.674;7.824;2023-02-22T06:16:54;100513.00;;;20.16;57.94
48872;BME280;36154;51.674;7.824;2023-02-22T06:19:19;100514.78;;;20.13;57.75
48872;BME280;36154;51.674;7.824;2023-02-22T06:21:52;100513.94;;;20.13;57.88
48872;BME280;36154;51.674;7.824;2023-02-22T06:24:18;100516.50;;;20.13;57.79
48872;BME280;36154;51.674;7.824;2023-02-22T06:26:44;100508.75;;;20.13;57.80
48872;BME280;36154;51.674;7.824;2023-02-22T06:29:09;100513.16;;;20.09;57.70
48872;BME280;36154;51.674;7.824;2023-02-22T06:31:35;100516.56;;;20.11;57.73
48872;BME280;36154;51.674;7.824;2023-02-22T06:34:01;100515.81;;;20.08;57.90
48872;BME280;36154;51.674;7.824;2023-02-22T06:36:26;100521.81;;;20.10;57.77
48872;BME280;36154;51.674;7.824;2023-02-22T06:38:51;100518.38;;;20.08;57.80
48872;BME280;36154;51.674;7.824;2023-02-22T06:41:17;100522.69;;;20.09;57.64
48872;BME280;36154;51.674;7.824;2023-02-22T06:43:42;100520.97;;;20.08;57.49
48872;BME280;36154;51.674;7.824;2023-02-22T06:46:11;100521.84;;;20.08;57.20
48872;BME280;36154;51.674;7.824;2023-02-22T06:48:37;100526.19;;;20.06;57.79
48872;BME280;36154;51.674;7.824;2023-02-22T06:51:04;100526.16;;;20.08;57.67
48872;BME280;36154;51.674;7.824;2023-02-22T06:53:32;100526.16;;;20.08;57.61
48872;BME280;36154;51.674;7.824;2023-02-22T06:55:57;100532.22;;;20.07;57.55
48872;BME280;36154;51.674;7.824;2023-02-22T06:58:23;100524.56;;;20.04;57.64
48872;BME280;36154;51.674;7.824;2023-02-22T07:00:48;100529.63;;;20.07;57.68
48872;BME280;36154;51.674;7.824;2023-02-22T07:03:13;100528.78;;;20.06;57.66
48872;BME280;36154;51.674;7.824;2023-02-22T07:05:40;100525.34;;;20.06;57.63
48872;BME280;36154;51.674;7.824;2023-02-22T07:08:06;100525.34;;;20.06;57.50
48872;BME280;36154;51.674;7.824;2023-02-22T07:10:33;100526.25;;;20.05;57.54
48872;BME280;36154;51.674;7.824;2023-02-22T07:12:59;100525.34;;;20.06;57.61
48872;BME280;36154;51.674;7.824;2023-02-22T07:15:26;100530.56;;;20.04;57.30
48872;BME280;36154;51.674;7.824;2023-02-22T07:17:52;100522.81;;;20.04;57.35
48872;BME280;36154;51.674;7.824;2023-02-22T07:20:18;100519.38;;;20.04;57.27
48872;BME280;36154;51.674;7.824;2023-02-22T07:22:45;100524.56;;;20.04;57.37
48872;BME280;36154;51.674;7.824;2023-02-22T07:25:10;100528.00;;;20.03;57.91
48872;BME280;36154;51.674;7.824;2023-02-22T07:27:37;100518.59;;;20.02;57.58
48872;BME280;36154;51.674;7.824;2023-02-22T07:30:05;100517.72;;;20.01;57.43
48872;BME280;36154;51.674;7.824;2023-02-22T07:32:31;100520.31;;;20.01;57.52
48872;BME280;36154;51.674;7.824;2023-02-22T07:34:56;100520.31;;;20.01;57.55
48872;BME280;36154;51.674;7.824;2023-02-22T07:37:21;100522.06;;;20.01;57.46
48872;BME280;36154;51.674;7.824;2023-02-22T07:39:47;100523.78;;;20.00;57.46
48872;BME280;36154;51.674;7.824;2023-02-22T07:42:12;100518.63;;;20.00;57.54
48872;BME280;36154;51.674;7.824;2023-02-22T07:44:37;100513.50;;;19.99;57.69
48872;BME280;36154;51.674;7.824;2023-02-22T07:47:03;100522.94;;;20.00;57.63
48872;BME280;36154;51.674;7.824;2023-02-22T07:49:28;100524.63;;;20.01;57.63
48872;BME280;36154;51.674;7.824;2023-02-22T07:51:53;100519.50;;;19.99;57.63
48872;BME280;36154;51.674;7.824;2023-02-22T07:54:19;100513.53;;;19.97;57.54
48872;BME280;36154;51.674;7.824;2023-02-22T07:56:46;100511.75;;;19.99;57.59
48872;BME280;36154;51.674;7.824;2023-02-22T07:59:11;100513.50;;;19.99;57.71
48872;BME280;36154;51.674;7.824;2023-02-22T08:01:37;100517.81;;;19.98;57.65
48872;BME280;36154;51.674;7.824;2023-02-22T08:04:02;100510.06;;;19.98;57.56
48872;BME280;36154;51.674;7.824;2023-02-22T08:06:27;100506.56;;;19.99;57.56
48872;BME280;36154;51.674;7.824;2023-02-22T08:08:54;100505.72;;;19.99;57.55
48872;BME280;36154;51.674;7.824;2023-02-22T08:11:19;100511.75;;;19.99;57.72
48872;BME280;36154;51.674;7.824;2023-02-22T08:13:45;100509.16;;;19.99;57.67
48872;BME280;36154;51.674;7.824;2023-02-22T08:16:10;100504.03;;;19.98;57.70
48872;BME280;36154;51.674;7.824;2023-02-22T08:18:35;100500.56;;;19.99;57.71
48872;BME280;36154;51.674;7.824;2023-02-22T08:21:03;100507.41;;;20.00;57.71
48872;BME280;36154;51.674;7.824;2023-02-22T08:23:28;100492.81;;;19.99;57.64
48872;BME280;36154;51.674;7.824;2023-02-22T08:25:54;100488.50;;;19.98;57.46
48872;BME280;36154;51.674;7.824;2023-02-22T08:28:21;100491.91;;;20.00;57.54
48872;BME280;36154;51.674;7.824;2023-02-22T08:30:47;100491.91;;;20.00;57.60
48872;BME280;36154;51.674;7.824;2023-02-22T08:33:14;100489.38;;;19.98;57.60
48872;BME280;36154;51.674;7.824;2023-02-22T08:35:45;100490.22;;;19.99;57.39
48872;BME280;36154;51.674;7.824;2023-02-22T08:38:28;100485.03;;;19.99;57.41
48872;BME280;36154;51.674;7.824;2023-02-22T08:40:54;100477.28;;;19.99;57.79
48872;BME280;36154;51.674;7.824;2023-02-22T08:43:20;100485.03;;;19.99;57.57
48872;BME280;36154;51.674;7.824;2023-02-22T08:45:47;100480.72;;;19.99;57.49
48872;BME280;36154;51.674;7.824;2023-02-22T08:48:13;100479.03;;;19.98;57.50
48872;BME280;36154;51.674;7.824;2023-02-22T08:50:38;100471.19;;;20.00;57.53
48872;BME280;36154;51.674;7.824;2023-02-22T08:53:06;100467.81;;;19.98;57.49
48872;BME280;36154;51.674;7.824;2023-02-22T08:55:35;100470.41;;;19.98;57.32
48872;BME280;36154;51.674;7.824;2023-02-22T08:58:01;100464.34;;;19.99;57.52
48872;BME280;36154;51.674;7.824;2023-02-22T09:00:31;100464.34;;;19.99;57.45
48872;BME280;36154;51.674;7.824;2023-02-22T09:03:03;100464.34;;;19.99;57.41
48872;BME280;36154;51.674;7.824;2023-02-22T09:05:29;100463.53;;;19.98;57.30
48872;BME280;36154;51.674;7.824;2023-02-22T09:07:55;100461.81;;;19.97;57.27
48872;BME280;36154;51.674;7.824;2023-02-22T09:10:23;100451.47;;;19.97;57.34
48872;BME280;36154;51.674;7.824;2023-02-22T09:12:53;100449.72;;;19.98;57.29
48872;BME280;36154;51.674;7.824;2023-02-22T09:15:23;100450.59;;;19.98;57.34
48872;BME280;36154;51.674;7.824;2023-02-22T09:17:49;100454.91;;;19.98;57.26
48872;BME280;36154;51.674;7.824;2023-02-22T09:20:17;100448.00;;;19.98;57.33
48872;BME280;36154;51.674;7.824;2023-02-22T09:22:47;100452.31;;;19.98;57.29
48872;BME280;36154;51.674;7.824;2023-02-22T09:25:13;100444.56;;;19.98;57.23
48872;BME280;36154;51.674;7.824;2023-02-22T09:27:38;100437.72;;;19.97;57.40
48872;BME280;36154;51.674;7.824;2023-02-22T09:30:05;100433.31;;;19.99;57.38
48872;BME280;36154;51.674;7.824;2023-02-22T09:32:30;100441.09;;;19.99;57.15
48872;BME280;36154;51.674;7.824;2023-02-22T09:34:55;100432.50;;;19.98;57.10
48872;BME280;36154;51.674;7.824;2023-02-22T09:37:21;100431.56;;;19.99;57.10
48872;BME280;36154;51.674;7.824;2023-02-22T09:39:47;100436.72;;;20.01;57.17
48872;BME280;36154;51.674;7.824;2023-02-22T09:42:39;100430.75;;;19.99;56.99
48872;BME280;36154;51.674;7.824;2023-02-22T09:45:22;100435.00;;;20.00;57.10
48872;BME280;36154;51.674;7.824;2023-02-22T09:47:59;100427.31;;;19.98;57.15
48872;BME280;36154;51.674;7.824;2023-02-22T09:50:30;100427.31;;;19.98;57.11
48872;BME280;36154;51.674;7.824;2023-02-22T09:53:06;100428.16;;;19.99;56.89
48872;BME280;36154;51.674;7.824;2023-02-22T09:55:50;100422.16;;;19.98;56.87
48872;BME280;36154;51.674;7.824;2023-02-22T09:58:25;100420.53;;;19.94;56.99
48872;BME280;36154;51.674;7.824;2023-02-22T10:00:57;100423.81;;;19.99;56.85
48872;BME280;36154;51.674;7.824;2023-02-22T10:06:29;100424.66;;;20.00;56.85
48872;BME280;36154;51.674;7.824;2023-02-22T10:08:59;100421.28;;;19.98;56.96
48872;BME280;36154;51.674;7.824;2023-02-22T10:17:09;100410.94;;;19.98;56.48
48872;BME280;36154;51.674;7.824;2023-02-22T10:24:59;100407.47;;;19.99;56.45
48872;BME280;36154;51.674;7.824;2023-02-22T10:27:35;100405.75;;;19.98;56.23
48872;BME280;36154;51.674;7.824;2023-02-22T10:32:44;100407.47;;;19.99;56.34
48872;BME280;36154;51.674;7.824;2023-02-22T10:35:26;100403.13;;;19.99;56.10
48872;BME280;36154;51.674;7.824;2023-02-22T10:37:56;100401.38;;;20.00;56.16
48872;BME280;36154;51.674;7.824;2023-02-22T10:40:24;100392.78;;;19.99;56.03
48872;BME280;36154;51.674;7.824;2023-02-22T10:43:09;100396.22;;;20.00;56.08
48872;BME280;36154;51.674;7.824;2023-02-22T10:45:35;100392.78;;;19.99;56.05
48872;BME280;36154;51.674;7.824;2023-02-22T10:48:11;100388.47;;;20.00;55.98
48872;BME280;36154;51.674;7.824;2023-02-22T10:50:41;100387.56;;;20.01;55.87
48872;BME280;36154;51.674;7.824;2023-02-22T10:53:08;100379.81;;;20.01;55.86
48872;BME280;36154;51.674;7.824;2023-02-22T10:55:34;100384.09;;;20.02;55.61
48872;BME280;36154;51.674;7.824;2023-02-22T10:58:05;100385.78;;;20.03;55.87
48872;BME280;36154;51.674;7.824;2023-02-22T11:00:36;100383.19;;;20.03;55.83
48872;BME280;36154;51.674;7.824;2023-02-22T11:05:41;100371.97;;;20.04;55.51
48872;BME280;36154;51.674;7.824;2023-02-22T11:10:46;100370.22;;;20.04;55.60
48872;BME280;36154;51.674;7.824;2023-02-22T11:13:22;100369.38;;;20.04;55.73
48872;BME280;36154;51.674;7.824;2023-02-22T11:15:50;100359.03;;;20.04;55.63
48872;BME280;36154;51.674;7.824;2023-02-22T11:18:24;100371.97;;;20.04;55.66
48872;BME280;36154;51.674;7.824;2023-02-22T11:20:58;100364.22;;;20.04;55.56
48872;BME280;36154;51.674;7.824;2023-02-22T11:23:24;100359.84;;;20.06;55.57
48872;BME280;36154;51.674;7.824;2023-02-22T11:26:08;100366.72;;;20.07;55.47
48872;BME280;36154;51.674;7.824;2023-02-22T11:28:35;100363.22;;;20.08;55.74
48872;BME280;36154;51.674;7.824;2023-02-22T11:31:14;100364.97;;;20.07;55.34
48872;BME280;36154;51.674;7.824;2023-02-22T11:33:56;100359.78;;;20.07;55.56
48872;BME280;36154;51.674;7.824;2023-02-22T11:36:37;100352.88;;;20.08;55.51
48872;BME280;36154;51.674;7.824;2023-02-22T11:39:24;100356.38;;;20.07;55.28
48872;BME280;36154;51.674;7.824;2023-02-22T11:41:51;100355.44;;;20.08;55.32
48872;BME280;36154;51.674;7.824;2023-02-22T11:46:45;100345.97;;;20.08;55.35
48872;BME280;36154;51.674;7.824;2023-02-22T11:49:12;100340.84;;;20.07;55.25
48872;BME280;36154;51.674;7.824;2023-02-22T11:57:35;100326.13;;;20.09;55.02
48872;BME280;36154;51.674;7.824;2023-02-22T12:00:30;100319.16;;;20.11;55.07
48872;BME280;36154;51.674;7.824;2023-02-22T12:09:18;100313.97;;;20.11;54.98
48872;BME280;36154;51.674;7.824;2023-02-22T12:14:47;100312.19;;;20.13;55.00
48872;BME280;36154;51.674;7.824;2023-02-22T12:17:48;100318.22;;;20.13;54.85
48872;BME280;36154;51.674;7.824;2023-02-22T12:20:19;100308.72;;;20.14;55.00
48872;BME280;36154;51.674;7.824;2023-02-22T12:26:00;100309.50;;;20.16;54.71
48872;BME280;36154;51.674;7.824;2023-02-22T12:28:29;100299.16;;;20.16;54.81
48872;BME280;36154;51.674;7.824;2023-02-22T12:31:07;100295.63;;;20.19;54.71
48872;BME280;36154;51.674;7.824;2023-02-22T12:36:42;100296.47;;;20.19;54.56
48872;BME280;36154;51.674;7.824;2023-02-22T12:39:45;100298.13;;;20.22;54.51
48872;BME280;36154;51.674;7.824;2023-02-22T12:45:24;100284.22;;;20.24;54.33
48872;BME280;36154;51.674;7.824;2023-02-22T12:48:03;100292.78;;;20.26;54.20
48872;BME280;36154;51.674;7.824;2023-02-22T12:50:33;100279.00;;;20.26;54.17
48872;BME280;36154;51.674;7.824;2023-02-22T12:53:27;100285.84;;;20.28;53.95
48872;BME280;36154;51.674;7.824;2023-02-22T12:56:31;100282.34;;;20.29;53.94
48872;BME280;36154;51.674;7.824;2023-02-22T12:59:18;100276.28;;;20.30;53.88
48872;BME280;36154;51.674;7.824;2023-02-22T13:01:51;100275.38;;;20.31;54.00
48872;BME280;36154;51.674;7.824;2023-02-22T13:04:18;100279.59;;;20.34;54.06
48872;BME280;36154;51.674;7.824;2023-02-22T13:06:52;100270.97;;;20.35;54.00
48872;BME280;36154;51.674;7.824;2023-02-22T13:09:33;100276.06;;;20.37;53.90
48872;BME280;36154;51.674;7.824;2023-02-22T13:12:20;100275.16;;;20.38;53.99
48872;BME280;36154;51.674;7.824;2023-02-22T13:15:05;100270.78;;;20.40;53.95
48872;BME280;36154;51.674;7.824;2023-02-22T13:20:36;100257.06;;;20.38;53.71
48872;BME280;36154;51.674;7.824;2023-02-22T13:23:14;100260.31;;;20.43;53.81
48872;BME280;36154;51.674;7.824;2023-02-22T13:26:36;100260.28;;;20.44;53.69
48872;BME280;36154;51.674;7.824;2023-02-22T13:28:42;100258.53;;;20.45;53.71
48872;BME280;36154;51.674;7.824;2023-02-22T13:34:17;100252.41;;;20.49;53.91
48872;BME280;36154;51.674;7.824;2023-02-22T13:44:53;100253.97;;;20.53;55.66
48872;BME280;36154;51.674;7.824;2023-02-22T13:53:06;100240.03;;;20.57;55.88
48872;BME280;36154;51.674;7.824;2023-02-22T13:55:35;100237.44;;;20.57;56.05
48872;BME280;36154;51.674;7.824;2023-02-22T13:58:06;100248.59;;;20.59;55.74
48872;BME280;36154;51.674;7.824;2023-02-22T14:00:45;100239.94;;;20.60;56.02
48872;BME280;36154;51.674;7.824;2023-02-22T14:13:08;100249.22;;;20.66;55.91
48872;BME280;36154;51.674;7.824;2023-02-22T14:15:34;100244.03;;;20.66;56.21
48872;BME280;36154;51.674;7.824;2023-02-22T14:18:04;100245.72;;;20.67;56.00
48872;BME280;36154;51.674;7.824;2023-02-22T14:20:35;100245.72;;;20.67;56.35
48872;BME280;36154;51.674;7.824;2023-02-22T14:25:52;100250.84;;;20.68;56.36
48872;BME280;36154;51.674;7.824;2023-02-22T14:28:38;100244.88;;;20.66;56.27
48872;BME280;36154;51.674;7.824;2023-02-22T14:31:09;100243.16;;;20.67;57.00
48872;BME280;36154;51.674;7.824;2023-02-22T14:42:18;100243.97;;;20.67;57.09
48872;BME280;36154;51.674;7.824;2023-02-22T14:47:57;100242.28;;;20.66;57.34
48872;BME280;36154;51.674;7.824;2023-02-22T14:53:19;100240.56;;;20.67;57.38
48872;BME280;36154;51.674;7.824;2023-02-22T14:55:55;100238.03;;;20.65;57.93
48872;BME280;36154;51.674;7.824;2023-02-22T14:58:26;100238.13;;;20.62;57.51
48872;BME280;36154;51.674;7.824;2023-02-22T15:00:53;100240.66;;;20.64;57.22